»·PEaware :: N132EF KBLH-KCRQ

N132EF :: KBLH-KCRQ

FLIGHT INFORMATION

Flight Status: Arrived
Operator: Privately registered:
United States
More flights under this callsign
Pilot: Ron R. (25532)
Aircraft: BEECH AIRCRAFT DUKE
(BE60)
More flights by this aircraft type
Origin: KBLH Blythe
United States
Destination: KCRQ McClellan-Palomar
United States
More flights between these airports :: More routes between these airports
Route: BLH V460 JLI
File this flight plan on PilotEdge
Remarks:
Altitude:
(Current/Filed)
10,000ft
Speed:
(Current/Filed)
210kts
Departed: 02-Sep-19 08:16 PM
Arrived: 02-Sep-19 08:59 PM
Distance/Time
Traveled:
132nm/0:43
Distance/Time
To Go:
Arrived

Flight Plot

Page will automatically refresh every two minutes.

Flight plan parsing failed; only flown route is shown


Map Options




Map Legend


Flown Route
Filed Route
Departure Airport
Arrival Airport
Navaid (VOR, NDB)
Fix

Horizontal Profiles

Position Reports

Time Latitude Longitude Heading Altitude Ground
Speed
02-Sep-19 19:43 33.614331 -114.712394 179 400ft 0kts
02-Sep-19 19:44 33.614331 -114.712394 179 400ft 0kts
02-Sep-19 19:45 33.614331 -114.712394 179 400ft 0kts
02-Sep-19 19:46 33.614331 -114.712394 179 400ft 0kts
02-Sep-19 19:47 33.614331 -114.712394 179 400ft 0kts
02-Sep-19 19:48 33.614331 -114.712394 179 400ft 0kts
02-Sep-19 19:49 33.614331 -114.712394 179 400ft 0kts
02-Sep-19 19:50 33.614331 -114.712394 179 400ft 0kts
02-Sep-19 19:51 33.614331 -114.712394 179 400ft 0kts
02-Sep-19 19:52 33.614331 -114.712394 179 400ft 0kts
02-Sep-19 19:53 33.614331 -114.712394 179 400ft 0kts
02-Sep-19 19:54 33.614331 -114.712394 179 400ft 0kts
02-Sep-19 19:55 33.614331 -114.712394 179 400ft 0kts
02-Sep-19 19:56 33.614330 -114.712394 179 400ft 0kts
02-Sep-19 19:57 33.614328 -114.712394 179 400ft 0kts
02-Sep-19 19:58 33.614324 -114.712394 179 400ft 0kts
02-Sep-19 19:59 33.614320 -114.712394 179 400ft 0kts
02-Sep-19 20:00 33.614317 -114.712394 179 400ft 0kts
02-Sep-19 20:01 33.614313 -114.712394 179 400ft 0kts
02-Sep-19 20:02 33.614309 -114.712394 179 400ft 0kts
02-Sep-19 20:03 33.614306 -114.712394 179 400ft 0kts
02-Sep-19 20:04 33.614463 -114.712397 179 400ft 2kts
02-Sep-19 20:05 33.614972 -114.712153 1 400ft 5kts
02-Sep-19 20:06 33.615355 -114.709781 90 400ft 9kts
02-Sep-19 20:07 33.615630 -114.706025 82 400ft 8kts
02-Sep-19 20:08 33.615792 -114.705972 296 400ft 0kts
02-Sep-19 20:09 33.615793 -114.705976 296 400ft 0kts
02-Sep-19 20:10 33.615796 -114.705983 296 400ft 0kts
02-Sep-19 20:11 33.615800 -114.705991 296 400ft 0kts
02-Sep-19 20:12 33.615962 -114.706272 328 400ft 3kts
02-Sep-19 20:13 33.616027 -114.706315 331 400ft 0kts
02-Sep-19 20:14 33.616542 -114.707053 271 400ft 0kts
02-Sep-19 20:15 33.616584 -114.738883 268 1089ft 143kts
02-Sep-19 20:16 33.616545 -114.788328 269 2667ft 153kts
02-Sep-19 20:17 33.609730 -114.837388 234 4471ft 149kts
02-Sep-19 20:18 33.599388 -114.884036 269 6462ft 146kts
02-Sep-19 20:19 33.600717 -114.932299 271 8423ft 144kts
02-Sep-19 20:20 33.602127 -114.982916 270 9929ft 167kts
02-Sep-19 20:21 33.603926 -115.048754 271 9984ft 217kts
02-Sep-19 20:22 33.605857 -115.122206 271 9978ft 220kts
02-Sep-19 20:23 33.607695 -115.195282 271 9976ft 219kts
02-Sep-19 20:24 33.609504 -115.268314 270 9965ft 219kts
02-Sep-19 20:25 33.611271 -115.341518 271 9962ft 218kts
02-Sep-19 20:26 33.613010 -115.414446 271 9959ft 218kts
02-Sep-19 20:27 33.614711 -115.487231 271 9957ft 218kts
02-Sep-19 20:28 33.616343 -115.559974 271 9954ft 218kts
02-Sep-19 20:29 33.617927 -115.632626 270 9953ft 218kts
02-Sep-19 20:30 33.599966 -115.699361 235 9963ft 216kts
02-Sep-19 20:31 33.567057 -115.759874 237 9959ft 217kts
02-Sep-19 20:32 33.535465 -115.821367 238 9964ft 216kts
02-Sep-19 20:33 33.503983 -115.882965 238 9960ft 217kts
02-Sep-19 20:34 33.472439 -115.944529 237 9958ft 217kts
02-Sep-19 20:35 33.440738 -116.006287 237 9957ft 217kts
02-Sep-19 20:36 33.409077 -116.067862 237 9958ft 217kts
02-Sep-19 20:37 33.377300 -116.129557 237 9937ft 218kts
02-Sep-19 20:38 33.345461 -116.191271 237 9948ft 217kts
02-Sep-19 20:39 33.313655 -116.252814 237 9959ft 217kts
02-Sep-19 20:40 33.281707 -116.314539 237 9976ft 218kts
02-Sep-19 20:41 33.249756 -116.376142 237 9992ft 218kts
02-Sep-19 20:42 33.217758 -116.437744 237 10012ft 218kts
02-Sep-19 20:43 33.185754 -116.499254 237 10065ft 217kts
02-Sep-19 20:44 33.153793 -116.560578 237 10101ft 218kts
02-Sep-19 20:45 33.139410 -116.629670 270 9934ft 215kts
02-Sep-19 20:46 33.138752 -116.697623 268 9050ft 181kts
02-Sep-19 20:47 33.137758 -116.758634 268 8375ft 196kts
02-Sep-19 20:48 33.136794 -116.822475 268 6875ft 186kts
02-Sep-19 20:49 33.136063 -116.882912 268 6062ft 177kts
02-Sep-19 20:50 33.135397 -116.941175 268 5319ft 176kts
02-Sep-19 20:51 33.134640 -116.999520 268 4103ft 178kts
02-Sep-19 20:52 33.133969 -117.053420 267 4050ft 141kts
02-Sep-19 20:53 33.136596 -117.104970 280 3836ft 150kts
02-Sep-19 20:54 33.145233 -117.151744 279 2814ft 142kts
02-Sep-19 20:55 33.142264 -117.195203 258 1828ft 122kts
02-Sep-19 20:56 33.135674 -117.234591 257 1096ft 118kts
02-Sep-19 20:57 33.129737 -117.270898 256 363ft 105kts
02-Sep-19 20:58 33.127092 -117.287234 241 334ft 12kts
02-Sep-19 20:59 33.126504 -117.284498 79 334ft 15kts
02-Sep-19 21:01 33.127336 -117.279307 79 334ft 16kts
02-Sep-19 21:02 33.126944 -117.277285 78 334ft 0kts
02-Sep-19 21:03 33.126945 -117.277283 78 334ft 0kts
02-Sep-19 21:04 33.126945 -117.277282 78 334ft 0kts
02-Sep-19 21:05 33.126945 -117.277282 78 334ft 0kts

Navigation Log

Ident Type
Flight plan parsing failed, navigation log unavailable